Terminal Aerodrome Forecast
Issued by NWS

Home | Current Version | Previous Version | Text Only | Print | Product List | Glossary On
Versions: 1 2 3 4 5 6 7 8 9 10 11 12 13 14 15 16 17
871
FTUS44 KEWX 140852 AAB
TAFSSF
TAF AMD
KSSF 140852Z 1409/1506 15003KT 3SM BR SCT250
      TEMPO 1409/1411 1SM BR
     FM141100 17005KT P6SM BKN015
     FM141300 17006KT P6SM OVC007
     FM141700 19013G23KT P6SM SCT020=

USA.gov is the U.S. government's official web portal to all federal, state and local government web resources and services.